Time;durP1;ratioP1;P1;durP2;ratioP2;P2;SDS_P1;SDS_P2;PMS_P1;PMS_P2;Temp;Humidity;BMP_temperature;BMP_pressure;BME280_temperature;BME280_humidity;BME280_pressure;Samples;Min_cycle;Max_cycle;Signal;HPM_P1;HPM_P2
2021/08/03 00:01:13;;;;;;;11.73;5.07;;;;;;;11.71;100.00;97635.97;4959561;28;20058;-82
2021/08/03 00:03:52;;;;;;;21.17;5.25;;;;;;;11.69;100.00;97638.19;4941477;29;20053;-82
2021/08/03 00:06:30;;;;;;;8.75;4.70;;;;;;;11.76;100.00;97645.84;4958641;29;20054;-81
2021/08/03 00:08:58;;;;;;;13.45;5.55;;;;;;;11.77;100.00;97642.00;4942548;29;20051;-82
2021/08/03 00:11:30;;;;;;;10.18;4.63;;;;;;;11.89;100.00;97636.72;4959960;29;20594;-82
2021/08/03 00:14:03;;;;;;;16.33;5.50;;;;;;;11.88;100.00;97640.53;4963940;28;20079;-82
2021/08/03 00:16:41;;;;;;;20.27;4.85;;;;;;;11.76;100.00;97637.69;4963293;29;20528;-84
2021/08/03 00:19:43;;;;;;;13.32;4.93;;;;;;;11.88;100.00;97656.81;4969350;28;20054;-83
2021/08/03 00:25:35;;;;;;;17.48;5.05;;;;;;;12.04;100.00;97641.63;4929045;29;20060;-84
2021/08/03 00:28:03;;;;;;;10.75;5.00;;;;;;;12.09;100.00;97641.44;4949839;23;20125;-85
2021/08/03 00:30:29;;;;;;;17.67;5.10;;;;;;;12.02;100.00;97641.16;4952506;28;20047;-85
2021/08/03 00:32:59;;;;;;;17.63;5.22;;;;;;;11.87;100.00;97601.75;4937301;29;20058;-84
2021/08/03 00:35:31;;;;;;;19.43;5.53;;;;;;;11.93;100.00;97596.97;4953310;29;20637;-85
2021/08/03 00:38:01;;;;;;;14.43;5.20;;;;;;;12.08;100.00;97622.78;4937688;28;20318;-84
2021/08/03 00:40:30;;;;;;;16.63;5.55;;;;;;;12.19;100.00;97635.66;4954634;28;20131;-86
2021/08/03 00:42:57;;;;;;;8.30;5.18;;;;;;;12.29;100.00;97643.44;4952923;28;20098;-85
2021/08/03 00:45:43;;;;;;;11.02;4.38;;;;;;;12.18;100.00;97636.00;4938523;29;20109;-85
2021/08/03 00:48:17;;;;;;;12.53;5.00;;;;;;;12.39;100.00;97651.22;4938601;29;20043;-85
2021/08/03 00:50:45;;;;;;;14.32;4.78;;;;;;;12.19;100.00;97613.94;4954247;28;20341;-85
2021/08/03 00:53:12;;;;;;;12.57;4.93;;;;;;;12.35;100.00;97619.63;4938174;29;20098;-85
2021/08/03 00:55:42;;;;;;;9.15;5.00;;;;;;;12.26;100.00;97611.50;4954122;28;20039;-85
2021/08/03 00:58:26;;;;;;;10.25;4.72;;;;;;;12.45;100.00;97640.97;4954707;28;20536;-85
2021/08/03 01:00:56;;;;;;;14.20;4.97;;;;;;;12.38;100.00;97619.78;4938620;29;20059;-85
2021/08/03 01:03:24;;;;;;;9.13;4.72;;;;;;;12.50;100.00;97638.09;4953703;28;20110;-84
2021/08/03 01:06:00;;;;;;;10.27;4.55;;;;;;;12.55;100.00;97642.53;4954089;28;20477;-85
2021/08/03 01:09:01;;;;;;;14.82;4.47;;;;;;;12.58;100.00;97642.69;4953508;29;20114;-86
2021/08/03 01:11:52;;;;;;;7.30;4.80;;;;;;;12.50;100.00;97616.38;4954287;29;20087;-84
2021/08/03 01:14:28;;;;;;;16.37;5.27;;;;;;;12.63;100.00;97634.34;4959965;28;20031;-86
2021/08/03 01:17:18;;;;;;;13.10;4.45;;;;;;;12.69;100.00;97640.38;4960791;29;20047;-85
2021/08/03 01:20:13;;;;;;;14.85;4.63;;;;;;;12.59;100.00;97625.28;4944715;29;20073;-87
2021/08/03 01:22:51;;;;;;;8.35;4.00;;;;;;;12.68;100.00;97630.63;4956835;28;20073;-87
2021/08/03 01:25:42;;;;;;;11.60;4.28;;;;;;;12.47;100.00;97603.44;4955396;29;20175;-87
2021/08/03 01:28:19;;;;;;;9.50;4.63;;;;;;;12.66;100.00;97638.31;4955232;28;20107;-85
2021/08/03 01:30:52;;;;;;;12.25;4.50;;;;;;;12.74;100.00;97645.63;4955849;28;20435;-85
2021/08/03 01:33:36;;;;;;;7.75;4.38;;;;;;;12.72;100.00;97632.41;4955995;28;20054;-85
2021/08/03 01:36:08;;;;;;;11.00;4.15;;;;;;;12.70;100.00;97615.59;4956027;28;20061;-85
2021/08/03 01:38:41;;;;;;;11.50;4.43;;;;;;;12.61;100.00;97627.66;4956145;28;20061;-85
2021/08/03 01:41:17;;;;;;;8.38;4.55;;;;;;;12.60;100.00;97626.03;4955917;28;20420;-85
2021/08/03 01:43:46;;;;;;;11.48;4.63;;;;;;;12.67;100.00;97648.84;4955797;28;20050;-84
2021/08/03 01:46:16;;;;;;;13.77;4.90;;;;;;;12.57;100.00;97632.94;4955683;28;20070;-86
2021/08/03 01:48:46;;;;;;;13.75;4.78;;;;;;;12.41;100.00;97624.53;4940694;28;20057;-85
2021/08/03 01:51:21;;;;;;;12.48;4.75;;;;;;;12.43;100.00;97629.66;4955678;28;20242;-86
2021/08/03 01:53:50;;;;;;;10.50;4.65;;;;;;;12.31;100.00;97603.19;4982502;28;20481;-85
2021/08/03 01:56:18;;;;;;;13.35;4.72;;;;;;;12.52;100.00;97643.22;4968370;28;20054;-85
2021/08/03 01:58:46;;;;;;;8.90;4.55;;;;;;;12.49;100.00;97645.44;4963565;28;20567;-86
2021/08/03 02:01:19;;;;;;;12.57;5.07;;;;;;;12.28;100.00;97628.31;4957974;28;20043;-87
2021/08/03 02:03:48;;;;;;;8.55;4.63;;;;;;;12.16;100.00;97609.16;4940844;28;20039;-86
2021/08/03 02:06:17;;;;;;;9.57;4.30;;;;;;;12.20;100.00;97625.59;4972336;28;20145;-86
2021/08/03 02:09:01;;;;;;;11.13;4.80;;;;;;;12.26;100.00;97637.88;4972615;28;20074;-86
2021/08/03 02:11:36;;;;;;;9.13;4.20;;;;;;;12.19;100.00;97632.16;4940428;28;20057;-86
2021/08/03 02:14:05;;;;;;;8.68;5.30;;;;;;;12.26;100.00;97657.66;4944422;28;20463;-89
2021/08/03 02:16:38;;;;;;;9.88;4.82;;;;;;;12.09;100.00;97644.16;4980102;28;20057;-86
2021/08/03 02:19:12;;;;;;;10.93;4.55;;;;;;;12.08;100.00;97647.22;4941824;28;20050;-86
2021/08/03 02:21:43;;;;;;;13.77;4.88;;;;;;;11.97;100.00;97633.19;4956356;28;20051;-86
2021/08/03 02:24:14;;;;;;;16.67;5.03;;;;;;;11.78;100.00;97624.63;4957976;28;20101;-85
2021/08/03 02:27:21;;;;;;;21.38;4.72;;;;;;;11.68;100.00;97614.91;4980165;28;20042;-87
2021/08/03 02:29:53;;;;;;;19.15;4.82;;;;;;;11.82;100.00;97641.81;4943896;28;20142;-88
2021/08/03 02:32:49;;;;;;;28.58;5.05;;;;;;;11.49;100.00;97611.72;4945327;28;20043;-87
2021/08/03 02:35:21;;;;;;;22.70;4.95;;;;;;;11.49;100.00;97617.13;4961103;28;20042;-88
2021/08/03 02:37:54;;;;;;;14.95;5.18;;;;;;;11.49;100.00;97627.97;4975212;28;20047;-87
2021/08/03 02:40:23;;;;;;;20.42;5.45;;;;;;;11.52;100.00;97627.34;4941591;28;20137;-87
2021/08/03 02:42:54;;;;;;;22.98;5.63;;;;;;;11.50;100.00;97628.78;4957470;28;20047;-88
2021/08/03 02:45:26;;;;;;;11.95;4.70;;;;;;;11.40;100.00;97618.25;4958041;28;20046;-86
2021/08/03 02:48:10;;;;;;;14.65;5.43;;;;;;;11.37;100.00;97630.53;4973634;28;20113;-86
2021/08/03 02:50:46;;;;;;;22.08;5.88;;;;;;;11.41;100.00;97633.41;4944119;28;20110;-87
2021/08/03 02:53:26;;;;;;;12.73;4.25;;;;;;;11.34;100.00;97657.47;4960115;28;20081;-87
2021/08/03 02:55:57;;;;;;;16.55;4.97;;;;;;;11.21;100.00;97651.09;4978290;28;20047;-87
2021/08/03 02:58:38;;;;;;;17.67;5.57;;;;;;;11.03;100.00;97633.22;4961739;28;20066;-86
2021/08/03 03:01:10;;;;;;;14.32;5.20;;;;;;;11.28;100.00;97664.97;4957885;28;20155;-85
2021/08/03 03:03:41;;;;;;;14.55;5.70;;;;;;;10.94;100.00;97630.50;4957947;28;20243;-85
2021/08/03 03:06:16;;;;;;;21.08;6.18;;;;;;;11.03;100.00;97638.66;4957786;28;20492;-86
2021/08/03 03:08:46;;;;;;;17.63;5.05;;;;;;;11.02;100.00;97628.94;4942783;28;20105;-86
2021/08/03 03:11:20;;;;;;;26.85;5.55;;;;;;;11.07;100.00;97658.59;4975795;23;20038;-82
2021/08/03 03:13:51;;;;;;;27.92;5.30;;;;;;;11.12;100.00;97658.44;5034013;28;20093;-81
2021/08/03 03:16:21;;;;;;;24.50;5.50;;;;;;;11.14;100.00;97670.56;5019307;28;20115;-83
2021/08/03 03:18:48;;;;;;;22.20;4.95;;;;;;;11.16;100.00;97673.72;5019242;28;20056;-84
2021/08/03 03:21:17;;;;;;;26.65;6.32;;;;;;;11.09;100.00;97676.13;5000736;28;20076;-84
2021/08/03 03:23:47;;;;;;;15.85;5.20;;;;;;;11.01;100.00;97673.41;4984845;28;20045;-84
2021/08/03 03:26:14;;;;;;;16.55;5.78;;;;;;;11.06;100.00;97665.13;5019338;28;20053;-84
2021/08/03 03:28:41;;;;;;;20.38;7.10;;;;;;;11.11;100.00;97679.31;4993605;28;20064;-84
2021/08/03 03:31:09;;;;;;;16.58;6.85;;;;;;;11.17;100.00;97658.28;4992993;28;20061;-83
2021/08/03 03:33:39;;;;;;;12.95;6.43;;;;;;;11.18;100.00;97670.69;4972239;28;20101;-83
2021/08/03 03:36:07;;;;;;;18.00;6.25;;;;;;;11.15;100.00;97660.50;4981547;28;20038;-84
2021/08/03 03:39:00;;;;;;;21.58;5.75;;;;;;;11.23;100.00;97668.63;4999740;28;20045;-81
2021/08/03 03:41:32;;;;;;;17.13;5.60;;;;;;;11.17;100.00;97675.31;4965697;28;20066;-81
2021/08/03 03:44:03;;;;;;;12.70;6.22;;;;;;;11.13;100.00;97678.97;4997047;28;20100;-83
2021/08/03 03:46:39;;;;;;;19.05;5.30;;;;;;;11.13;100.00;97679.78;4996972;28;20046;-82
2021/08/03 03:49:14;;;;;;;15.55;5.68;;;;;;;11.14;100.00;97670.56;4985954;28;20106;-82
2021/08/03 03:51:42;;;;;;;18.88;6.50;;;;;;;11.14;100.00;97665.13;4980313;28;20545;-82
2021/08/03 03:54:13;;;;;;;11.23;5.43;;;;;;;11.20;100.00;97676.63;5006025;28;20049;-82
2021/08/03 03:56:42;;;;;;;21.60;6.30;;;;;;;11.10;100.00;97675.00;4999521;28;20642;-82
2021/08/03 03:59:11;;;;;;;16.80;6.13;;;;;;;11.17;100.00;97679.97;4981245;28;20051;-81
2021/08/03 04:01:38;;;;;;;16.98;6.05;;;;;;;11.19;100.00;97669.59;5004676;28;20065;-81
2021/08/03 04:04:09;;;;;;;14.80;5.97;;;;;;;11.20;100.00;97677.41;5018726;28;20093;-80
2021/08/03 04:06:35;;;;;;;13.77;5.88;;;;;;;11.20;100.00;97680.09;5018064;28;20080;-83
2021/08/03 04:09:02;;;;;;;20.98;5.90;;;;;;;11.21;100.00;97679.00;5017377;28;20046;-80
2021/08/03 04:11:29;;;;;;;15.13;5.63;;;;;;;11.26;100.00;97678.03;4983633;28;20447;-82
2021/08/03 04:13:57;;;;;;;17.33;6.07;;;;;;;11.24;100.00;97678.38;5000247;28;20046;-81
2021/08/03 04:16:24;;;;;;;17.02;6.22;;;;;;;11.28;100.00;97682.03;5000791;28;20099;-81
2021/08/03 04:18:51;;;;;;;21.23;6.47;;;;;;;11.29;100.00;97680.13;4981999;28;20042;-82
2021/08/03 04:21:17;;;;;;;16.27;6.47;;;;;;;11.26;100.00;97662.59;5014310;28;20054;-82
2021/08/03 04:23:44;;;;;;;11.73;6.05;;;;;;;11.39;100.00;97665.44;5028617;28;20053;-81
2021/08/03 04:26:10;;;;;;;13.98;6.30;;;;;;;11.39;100.00;97668.16;5027025;28;20053;-81
2021/08/03 04:28:37;;;;;;;15.18;6.38;;;;;;;11.38;100.00;97670.06;5023902;28;20050;-82
2021/08/03 04:31:06;;;;;;;13.35;6.45;;;;;;;11.41;100.00;97672.13;5010940;28;20072;-81
2021/08/03 04:33:33;;;;;;;17.35;6.78;;;;;;;11.43;100.00;97669.13;5027224;28;20100;-83
2021/08/03 04:35:59;;;;;;;13.18;6.93;;;;;;;11.51;100.00;97669.09;5028437;28;20050;-82
2021/08/03 04:38:26;;;;;;;11.75;6.90;;;;;;;11.46;100.00;97661.13;5001952;28;20079;-82
2021/08/03 04:40:53;;;;;;;15.75;7.28;;;;;;;11.64;100.00;97667.38;4985193;28;20050;-82
2021/08/03 04:43:19;;;;;;;15.45;7.05;;;;;;;11.64;100.00;97672.78;4998263;28;20049;-82
2021/08/03 04:45:46;;;;;;;20.13;7.28;;;;;;;11.57;100.00;97650.78;4998727;28;20042;-82
2021/08/03 04:48:14;;;;;;;15.07;8.00;;;;;;;11.69;100.00;97659.88;4981089;28;20137;-82
2021/08/03 04:50:41;;;;;;;11.20;7.60;;;;;;;11.75;100.00;97661.31;4997563;28;20050;-83
2021/08/03 04:53:07;;;;;;;15.80;8.50;;;;;;;11.82;100.00;97664.31;4988760;28;20550;-81
2021/08/03 04:55:36;;;;;;;11.45;7.03;;;;;;;11.66;100.00;97640.72;5017151;28;20045;-83
2021/08/03 04:58:03;;;;;;;13.57;7.40;;;;;;;11.83;100.00;97665.13;5037162;28;20049;-84
2021/08/03 05:00:30;;;;;;;16.52;7.13;;;;;;;11.92;100.00;97673.25;4996598;28;20058;-84
2021/08/03 05:02:56;;;;;;;14.23;7.80;;;;;;;11.97;100.00;97673.88;4980933;28;20045;-81
2021/08/03 05:05:24;;;;;;;14.38;7.63;;;;;;;12.07;100.00;97670.03;5006460;28;20042;-85
2021/08/03 05:07:55;;;;;;;15.50;8.70;;;;;;;12.09;100.00;97671.28;4965729;28;20054;-83
2021/08/03 05:10:24;;;;;;;15.93;8.90;;;;;;;12.16;100.00;97659.94;4983324;28;20112;-84
2021/08/03 05:12:51;;;;;;;17.02;7.95;;;;;;;12.28;100.00;97662.78;5018702;28;20037;-83
2021/08/03 05:15:18;;;;;;;16.75;8.30;;;;;;;12.40;100.00;97668.31;4985297;28;20053;-84
2021/08/03 05:17:46;;;;;;;18.73;8.98;;;;;;;12.57;100.00;97667.47;5001106;28;20096;-84
2021/08/03 05:20:13;;;;;;;16.50;8.68;;;;;;;12.64;100.00;97668.53;5019382;28;20034;-83
2021/08/03 05:22:41;;;;;;;18.95;8.35;;;;;;;12.80;100.00;97657.91;5000611;28;20358;-83
2021/08/03 05:25:10;;;;;;;13.95;7.50;;;;;;;13.03;100.00;97664.66;5018687;28;20049;-85
2021/08/03 05:27:36;;;;;;;16.42;7.65;;;;;;;13.19;100.00;97657.50;5002110;28;20390;-85
2021/08/03 05:30:05;;;;;;;11.70;7.07;;;;;;;13.44;100.00;97669.34;5018364;28;20069;-84
2021/08/03 05:32:32;;;;;;;10.63;6.95;;;;;;;13.73;100.00;97658.34;5000766;28;20052;-87
2021/08/03 05:34:58;;;;;;;10.25;6.05;;;;;;;13.82;100.00;97655.53;5000631;28;20574;-85
2021/08/03 05:37:25;;;;;;;11.35;5.60;;;;;;;14.00;100.00;97656.97;5018410;28;20049;-83
2021/08/03 05:39:51;;;;;;;9.15;5.22;;;;;;;14.12;100.00;97646.91;4999702;28;20444;-85
2021/08/03 05:42:18;;;;;;;8.95;5.22;;;;;;;14.22;100.00;97649.19;5000812;28;20049;-86
2021/08/03 05:44:44;;;;;;;8.73;5.20;;;;;;;14.21;100.00;97634.00;4999589;28;20037;-84
2021/08/03 05:47:11;;;;;;;12.02;4.70;;;;;;;14.42;100.00;97657.66;4982020;28;20046;-83
2021/08/03 05:49:37;;;;;;;9.85;4.85;;;;;;;14.51;100.00;97647.44;4997905;28;20046;-85
2021/08/03 05:52:04;;;;;;;7.00;4.13;;;;;;;14.59;100.00;97652.78;5016546;28;20041;-84
2021/08/03 05:54:31;;;;;;;6.97;4.55;;;;;;;14.65;100.00;97648.69;4998795;28;20484;-84
2021/08/03 05:56:57;;;;;;;8.15;4.00;;;;;;;14.59;100.00;97633.72;5016454;28;20045;-86
2021/08/03 05:59:24;;;;;;;7.47;4.43;;;;;;;14.73;100.00;97639.63;4997129;28;20057;-85
2021/08/03 06:01:51;;;;;;;8.80;4.82;;;;;;;14.81;100.00;97638.69;4982958;28;20520;-85
2021/08/03 06:04:19;;;;;;;10.65;4.85;;;;;;;14.89;100.00;97643.22;4983880;28;20045;-85
2021/08/03 06:06:48;;;;;;;11.40;5.38;;;;;;;14.98;100.00;97641.19;5015126;28;20096;-85
2021/08/03 06:09:16;;;;;;;7.13;4.32;;;;;;;15.06;100.00;97646.84;5013816;28;20064;-86
2021/08/03 06:11:47;;;;;;;9.77;4.93;;;;;;;15.23;100.00;97641.13;5013312;28;20049;-84
2021/08/03 06:14:34;;;;;;;8.05;4.40;;;;;;;15.29;100.00;97651.47;4980148;28;20046;-84
2021/08/03 06:17:32;;;;;;;7.63;4.78;;;;;;;15.38;100.00;97637.69;4996613;28;20484;-84
2021/08/03 06:19:59;;;;;;;7.45;4.93;;;;;;;15.46;100.00;97636.75;5014387;28;20447;-85
2021/08/03 06:22:26;;;;;;;9.05;4.57;;;;;;;15.53;100.00;97642.44;5014536;28;20045;-83
2021/08/03 06:24:53;;;;;;;6.07;4.28;;;;;;;15.56;100.00;97658.13;5014524;28;20046;-82
2021/08/03 06:27:21;;;;;;;9.57;4.10;;;;;;;15.62;100.00;97650.47;4999376;28;20046;-83
2021/08/03 06:29:47;;;;;;;6.50;3.47;;;;;;;15.66;100.00;97651.38;4998917;28;20501;-84
2021/08/03 06:32:14;;;;;;;10.73;3.97;;;;;;;15.69;100.00;97645.22;4983183;28;20096;-83
2021/08/03 06:34:43;;;;;;;8.10;3.83;;;;;;;15.65;100.00;97641.59;5000150;28;20045;-83
2021/08/03 06:37:11;;;;;;;9.27;3.42;;;;;;;15.76;100.00;97645.41;4998455;28;20401;-83
2021/08/03 06:39:40;;;;;;;5.15;3.47;;;;;;;15.80;100.00;97649.81;5002060;28;20112;-85
2021/08/03 06:42:38;;;;;;;5.15;3.40;;;;;;;16.02;100.00;97653.94;5019150;28;20496;-84
2021/08/03 06:45:13;;;;;;;8.23;3.72;;;;;;;16.14;100.00;97653.88;5003639;28;20050;-84
2021/08/03 06:47:53;;;;;;;5.50;3.13;;;;;;;16.14;100.00;97648.41;4986042;28;20046;-84
2021/08/03 06:50:24;;;;;;;4.55;3.20;;;;;;;16.17;100.00;97650.44;5007551;28;20046;-84
2021/08/03 06:52:52;;;;;;;5.50;3.30;;;;;;;16.28;100.00;97651.53;5021861;28;20041;-83
2021/08/03 06:55:26;;;;;;;5.65;3.25;;;;;;;16.39;100.00;97652.56;5018186;28;20496;-82
2021/08/03 06:57:57;;;;;;;6.07;4.07;;;;;;;16.41;100.00;97642.09;5019089;28;20042;-83
2021/08/03 07:00:25;;;;;;;4.65;3.33;;;;;;;16.43;100.00;97639.00;4984626;28;20092;-81
2021/08/03 07:02:52;;;;;;;6.05;3.28;;;;;;;16.47;100.00;97639.88;5001636;28;20053;-79
2021/08/03 07:05:25;;;;;;;4.38;3.28;;;;;;;16.47;100.00;97640.66;5000823;28;20400;-84
2021/08/03 07:07:57;;;;;;;5.55;3.15;;;;;;;16.64;100.00;97645.03;5017872;28;20045;-82
2021/08/03 07:10:25;;;;;;;7.60;3.58;;;;;;;16.66;100.00;97640.78;4999934;28;20046;-83
2021/08/03 07:12:53;;;;;;;6.35;3.70;;;;;;;16.72;100.00;97642.09;5001563;28;20116;-82
2021/08/03 07:15:24;;;;;;;5.35;3.38;;;;;;;16.75;100.00;97638.66;4986299;28;20038;-84
2021/08/03 07:17:53;;;;;;;8.30;3.92;;;;;;;16.90;100.00;97641.75;5001280;28;20046;-83
2021/08/03 07:20:22;;;;;;;4.90;3.00;;;;;;;16.84;100.00;97635.75;5018472;28;20054;-83
2021/08/03 07:22:49;;;;;;;4.15;3.60;;;;;;;16.98;100.00;97651.69;5000745;28;20046;-82
2021/08/03 07:25:16;;;;;;;5.75;3.15;;;;;;;17.12;100.00;97650.06;5019072;28;20042;-85
2021/08/03 07:27:44;;;;;;;7.45;3.58;;;;;;;17.18;100.00;97642.38;5003702;28;20046;-84
2021/08/03 07:30:12;;;;;;;6.50;3.63;;;;;;;17.28;100.00;97648.09;4994151;28;20132;-84
2021/08/03 07:32:39;;;;;;;6.03;3.80;;;;;;;17.21;100.00;97639.72;4989121;28;20052;-82
2021/08/03 07:35:10;;;;;;;5.72;3.95;;;;;;;17.34;100.00;97637.66;5031561;28;20057;-83
2021/08/03 07:37:36;;;;;;;7.20;3.47;;;;;;;17.49;100.00;97639.53;5033098;28;20050;-84
2021/08/03 07:40:05;;;;;;;7.95;3.33;;;;;;;17.45;100.00;97639.44;5013065;28;20088;-80
2021/08/03 07:42:31;;;;;;;8.77;3.95;;;;;;;17.64;100.00;97633.22;4999267;28;20420;-83
2021/08/03 07:44:58;;;;;;;5.22;3.08;;;;;;;17.75;100.00;97631.50;5016487;28;20104;-83
2021/08/03 07:47:25;;;;;;;7.28;3.47;;;;;;;17.82;100.00;97631.63;5015684;28;20061;-81
2021/08/03 07:49:52;;;;;;;8.15;3.60;;;;;;;17.94;100.00;97626.00;5015970;28;20065;-83
2021/08/03 07:52:19;;;;;;;6.10;3.60;;;;;;;17.98;100.00;97634.28;4999019;28;20278;-81
2021/08/03 07:54:48;;;;;;;7.65;3.63;;;;;;;17.93;100.00;97631.84;5001366;28;20056;-84
2021/08/03 07:57:15;;;;;;;4.20;3.58;;;;;;;18.18;100.00;97630.34;5022304;28;20496;-81
2021/08/03 07:59:42;;;;;;;5.03;3.55;;;;;;;18.35;100.00;97624.38;5022224;28;20038;-81
2021/08/03 08:02:09;;;;;;;7.05;3.72;;;;;;;18.46;100.00;97628.09;5024749;28;20068;-83
2021/08/03 08:04:36;;;;;;;5.53;3.67;;;;;;;18.52;100.00;97629.41;5014950;28;20075;-84
2021/08/03 08:07:03;;;;;;;5.13;3.38;;;;;;;18.81;100.00;97624.38;5027910;28;20038;-83
2021/08/03 08:09:30;;;;;;;4.82;3.25;;;;;;;18.83;100.00;97624.78;5020089;28;20113;-84
2021/08/03 08:11:57;;;;;;;5.45;3.13;;;;;;;18.87;100.00;97622.88;5035793;28;20022;-86
2021/08/03 08:14:23;;;;;;;5.07;3.90;;;;;;;18.90;100.00;97633.94;5020053;28;20053;-85
2021/08/03 08:16:50;;;;;;;8.70;3.75;;;;;;;19.00;100.00;97627.81;5034748;28;20246;-86
2021/08/03 08:19:17;;;;;;;6.45;3.08;;;;;;;19.12;100.00;97629.56;5003033;28;20033;-83
2021/08/03 08:21:43;;;;;;;4.00;2.97;;;;;;;18.99;100.00;97634.47;5014062;28;20053;-82
2021/08/03 08:24:10;;;;;;;6.75;3.50;;;;;;;18.97;100.00;97625.78;5014863;28;20328;-84
2021/08/03 08:26:36;;;;;;;5.88;3.13;;;;;;;19.33;100.00;97618.84;4998307;28;20046;-84
2021/08/03 08:29:03;;;;;;;5.13;2.92;;;;;;;19.49;100.00;97619.47;5014850;28;20412;-82
2021/08/03 08:31:30;;;;;;;3.22;2.70;;;;;;;19.57;100.00;97617.63;5015003;28;20046;-83
2021/08/03 08:33:56;;;;;;;5.05;3.47;;;;;;;19.39;100.00;97622.09;4996920;28;20042;-83
2021/08/03 08:36:23;;;;;;;5.78;3.30;;;;;;;19.34;100.00;97630.63;4980755;28;20572;-82
2021/08/03 08:38:49;;;;;;;5.18;3.10;;;;;;;19.63;100.00;97624.38;5015225;28;20046;-84
2021/08/03 08:41:16;;;;;;;3.35;2.80;;;;;;;19.63;100.00;97622.41;4980899;28;20105;-83
2021/08/03 08:43:45;;;;;;;4.07;2.80;;;;;;;19.75;100.00;97621.38;4996960;28;20331;-82
2021/08/03 08:46:13;;;;;;;3.55;2.42;;;;;;;19.77;100.00;97633.56;4996784;28;20046;-84
2021/08/03 08:48:42;;;;;;;4.07;2.78;;;;;;;19.85;100.00;97613.25;5014369;28;20418;-83
2021/08/03 08:51:10;;;;;;;9.15;3.40;;;;;;;19.75;100.00;97624.91;5013059;28;20501;-83
2021/08/03 08:53:37;;;;;;;5.75;3.00;;;;;;;19.82;100.00;97624.22;5014037;28;20081;-82
2021/08/03 08:56:05;;;;;;;6.07;2.90;;;;;;;19.82;100.00;97619.50;5015066;28;20601;-83
2021/08/03 08:58:37;;;;;;;4.25;3.13;;;;;;;19.92;100.00;97622.75;5016904;28;20041;-83
2021/08/03 09:01:08;;;;;;;3.90;3.10;;;;;;;20.05;100.00;97624.88;5020976;28;20042;-83
2021/08/03 09:03:34;;;;;;;6.78;2.45;;;;;;;19.98;100.00;97624.75;5022250;28;20045;-82
2021/08/03 09:06:06;;;;;;;4.57;2.40;;;;;;;20.17;100.00;97621.03;5021908;28;20049;-80
2021/08/03 09:08:43;;;;;;;10.32;2.70;;;;;;;20.52;100.00;97622.19;5021768;28;20102;-83
2021/08/03 09:11:20;;;;;;;4.75;2.40;;;;;;;20.97;100.00;97612.72;5024299;28;20413;-83
2021/08/03 09:14:02;;;;;;;5.53;2.72;;;;;;;21.22;100.00;97623.91;5022909;28;20061;-80
2021/08/03 09:16:46;;;;;;;3.65;2.50;;;;;;;21.26;100.00;97619.22;5023037;28;20060;-80
2021/08/03 09:19:34;;;;;;;4.07;2.58;;;;;;;21.69;100.00;97620.19;5023395;28;20050;-81
2021/08/03 09:22:29;;;;;;;4.20;2.67;;;;;;;22.34;100.00;97626.31;5002869;28;20428;-81
2021/08/03 09:25:13;;;;;;;4.22;2.35;;;;;;;22.94;100.00;97625.59;5020605;28;20057;-82
2021/08/03 09:27:47;;;;;;;2.42;1.58;;;;;;;22.62;100.00;97617.31;5022508;28;20042;-81
2021/08/03 09:30:16;;;;;;;5.85;1.88;;;;;;;22.07;100.00;97610.50;4999151;28;20104;-82
2021/08/03 09:32:44;;;;;;;5.38;1.90;;;;;;;21.69;100.00;97606.44;5013651;28;20042;-81
2021/08/03 09:35:14;;;;;;;2.70;1.70;;;;;;;22.11;100.00;97603.84;4995809;28;20049;-79
2021/08/03 09:37:42;;;;;;;3.55;1.90;;;;;;;21.69;100.00;97607.22;5013848;28;20037;-82
2021/08/03 09:40:34;;;;;;;2.20;1.35;;;;;;;21.47;100.00;97613.81;5013623;28;20057;-82
2021/08/03 09:43:12;;;;;;;2.95;1.50;;;;;;;21.64;100.00;97609.56;4994867;28;20481;-81
2021/08/03 09:45:41;;;;;;;4.40;1.80;;;;;;;21.57;100.00;97609.53;4995196;28;20048;-83
2021/08/03 09:48:09;;;;;;;2.63;1.85;;;;;;;21.35;100.00;97616.09;4996174;28;20129;-84
2021/08/03 09:50:57;;;;;;;1.90;1.60;;;;;;;21.66;100.00;97612.72;4994784;28;20034;-82
2021/08/03 09:53:49;;;;;;;2.97;1.60;;;;;;;21.98;100.00;97607.34;5013111;28;20038;-81
2021/08/03 09:56:18;;;;;;;4.65;2.00;;;;;;;22.14;100.00;97614.06;5012932;28;20046;-83
2021/08/03 09:59:07;;;;;;;2.63;1.70;;;;;;;21.96;100.00;97601.44;4997271;28;20096;-81
2021/08/03 10:01:39;;;;;;;1.83;1.40;;;;;;;21.73;100.00;97610.75;5014028;28;20423;-83
2021/08/03 10:04:09;;;;;;;3.42;1.70;;;;;;;21.66;100.00;97608.00;4997306;28;20109;-81
2021/08/03 10:06:38;;;;;;;3.80;2.28;;;;;;;21.20;100.00;97600.69;5014695;28;20428;-81
2021/08/03 10:09:06;;;;;;;3.45;1.90;;;;;;;20.94;100.00;97599.72;4998118;28;20052;-82
2021/08/03 10:11:33;;;;;;;3.63;1.80;;;;;;;20.69;100.00;97595.22;5013691;28;20054;-80
2021/08/03 10:14:22;;;;;;;6.80;2.20;;;;;;;20.94;100.00;97593.41;4999368;28;20061;-81
2021/08/03 10:16:49;;;;;;;5.65;2.45;;;;;;;20.58;100.00;97594.34;5014193;28;20346;-82
2021/08/03 10:19:22;;;;;;;4.05;2.50;;;;;;;20.72;100.00;97591.69;5014936;28;20459;-82
2021/08/03 10:21:58;;;;;;;3.20;2.22;;;;;;;21.07;100.00;97603.75;4980598;28;20046;-80
2021/08/03 10:24:38;;;;;;;4.28;2.03;;;;;;;20.98;100.00;97603.28;4998208;28;20050;-82
2021/08/03 10:27:13;;;;;;;4.03;2.00;;;;;;;21.38;100.00;97599.59;4997979;28;20053;-83
2021/08/03 10:29:54;;;;;;;;;;;;;;;21.99;100.00;97595.13;5015178;28;20065;-81
2021/08/03 10:32:37;;;;;;;6.13;2.28;;;;;;;22.40;100.00;97595.59;4998788;28;19975;-83
2021/08/03 10:35:04;;;;;;;2.20;1.88;;;;;;;22.76;100.00;97595.22;5017177;28;20475;-83
2021/08/03 10:37:56;;;;;;;4.35;2.50;;;;;;;23.74;100.00;97587.88;4996779;28;20045;-83
2021/08/03 10:40:44;;;;;;;3.17;2.20;;;;;;;24.34;100.00;97590.31;4995440;28;20042;-82
2021/08/03 10:43:20;;;;;;;5.80;2.08;;;;;;;23.87;100.00;97588.22;5016868;28;20042;-82
2021/08/03 10:45:48;;;;;;;;;;;;;;;23.09;100.00;97599.53;5008219;28;20278;-84
2021/08/03 10:48:39;;;;;;;4.22;2.80;;;;;;;22.18;100.00;97579.00;5009660;28;19932;-83
2021/08/03 10:51:15;;;;;;;3.75;2.55;;;;;;;21.94;100.00;97582.50;4987282;28;20117;-83
2021/08/03 10:53:51;;;;;;;4.30;2.47;;;;;;;21.95;100.00;97575.03;5015456;28;20053;-83
2021/08/03 10:56:19;;;;;;;5.22;2.28;;;;;;;21.70;100.00;97575.72;5005838;28;20038;-84
2021/08/03 10:58:45;;;;;;;3.15;2.35;;;;;;;21.69;100.00;97570.59;5028354;28;20056;-83
2021/08/03 11:01:42;;;;;;;3.92;2.50;;;;;;;20.93;100.00;97578.84;5025752;28;20061;-81
2021/08/03 11:04:09;;;;;;;3.20;2.30;;;;;;;20.99;100.00;97579.28;5010838;28;20046;-84
2021/08/03 11:06:37;;;;;;;4.15;2.30;;;;;;;21.21;100.00;97566.47;5008272;28;20046;-82
2021/08/03 11:09:30;;;;;;;5.25;1.90;;;;;;;21.35;100.00;97561.03;5014576;28;20042;-82
2021/08/03 11:12:35;;;;;;;2.78;1.98;;;;;;;21.51;100.00;97567.78;5014512;28;20566;-83
2021/08/03 11:15:24;;;;;;;3.65;1.95;;;;;;;21.43;100.00;97568.94;5015495;28;20042;-81
2021/08/03 11:18:09;;;;;;;4.35;1.70;;;;;;;21.40;100.00;97558.69;5000999;28;20162;-81
2021/08/03 11:20:37;;;;;;;3.10;1.77;;;;;;;21.34;100.00;97556.69;5018247;28;20438;-82
2021/08/03 11:23:09;;;;;;;3.70;2.00;;;;;;;20.76;100.00;97565.00;4984021;28;20104;-82
2021/08/03 11:25:42;;;;;;;4.45;2.30;;;;;;;20.58;100.00;97558.56;5003806;28;20037;-80
2021/08/03 11:28:11;;;;;;;4.03;2.17;;;;;;;20.81;100.00;97559.13;5007155;28;20048;-81
2021/08/03 11:30:39;;;;;;;4.00;2.20;;;;;;;20.92;100.00;97548.97;4997930;28;20157;-80
2021/08/03 11:33:06;;;;;;;2.80;2.17;;;;;;;20.57;100.00;97552.28;5015095;28;20042;-81
2021/08/03 11:35:34;;;;;;;5.10;2.20;;;;;;;20.35;100.00;97547.78;5014201;28;20500;-82
2021/08/03 11:38:05;;;;;;;2.55;1.98;;;;;;;20.49;100.00;97556.16;4981983;28;20042;-83
2021/08/03 11:40:32;;;;;;;2.65;1.95;;;;;;;20.52;100.00;97547.91;5002441;28;20050;-82
2021/08/03 11:43:00;;;;;;;6.28;2.60;;;;;;;20.39;100.00;97538.41;5028663;28;20037;-85
2021/08/03 11:45:27;;;;;;;5.18;2.20;;;;;;;20.41;100.00;97549.78;5015885;28;20570;-81
2021/08/03 11:47:56;;;;;;;3.85;2.20;;;;;;;20.30;100.00;97548.16;4999356;28;20066;-82